createdAt,value
2022-08-05T00:01:27.756Z,39.39
2022-08-05T00:03:56.988Z,39.62
2022-08-05T00:06:30.676Z,39.53
2022-08-05T00:09:00.886Z,39.78
2022-08-05T00:11:34.682Z,39.89
2022-08-05T00:14:12.981Z,40.00
2022-08-05T00:16:52.670Z,40.11
2022-08-05T00:19:24.911Z,40.32
2022-08-05T00:22:00.005Z,40.11
2022-08-05T00:24:31.014Z,40.42
2022-08-05T00:27:04.637Z,40.48
2022-08-05T00:29:37.965Z,40.62
2022-08-05T00:32:12.278Z,40.40
2022-08-05T00:35:03.826Z,40.50
2022-08-05T00:37:50.737Z,40.38
2022-08-05T00:40:28.240Z,40.80
2022-08-05T00:43:00.719Z,40.66
2022-08-05T00:45:42.849Z,40.80
2022-08-05T00:48:12.525Z,40.75
2022-08-05T00:50:41.891Z,41.31
2022-08-05T00:53:59.933Z,41.04
2022-08-05T00:55:58.154Z,41.15
2022-08-05T00:58:27.472Z,41.30
2022-08-05T01:00:56.017Z,41.11
2022-08-05T01:03:24.234Z,41.54
2022-08-05T01:05:57.958Z,41.69
2022-08-05T01:08:40.761Z,41.92
2022-08-05T01:11:22.613Z,41.43
2022-08-05T01:14:15.558Z,41.70
2022-08-05T01:16:59.123Z,42.04
2022-08-05T01:20:01.940Z,41.79
2022-08-05T01:22:34.096Z,42.22
2022-08-05T01:25:23.013Z,42.02
2022-08-05T01:28:04.862Z,42.05
2022-08-05T01:30:38.221Z,42.14
2022-08-05T01:33:08.641Z,42.55
2022-08-05T01:35:51.153Z,42.74
2022-08-05T01:38:27.147Z,42.75
2022-08-05T01:40:59.864Z,42.55
2022-08-05T01:43:28.921Z,42.36
2022-08-05T01:45:57.159Z,42.33
2022-08-05T01:48:26.948Z,42.98
2022-08-05T01:50:54.186Z,42.59
2022-08-05T01:53:55.139Z,43.11
2022-08-05T01:56:09.792Z,43.14
2022-08-05T01:58:45.172Z,42.91
2022-08-05T02:01:25.361Z,43.24
2022-08-05T02:03:55.886Z,42.84
2022-08-05T02:06:37.910Z,43.39
2022-08-05T02:09:06.442Z,43.24
2022-08-05T02:11:42.142Z,43.26
2022-08-05T02:14:12.908Z,43.31
2022-08-05T02:16:45.862Z,43.21
2022-08-05T02:19:27.491Z,43.37
2022-08-05T02:22:25.822Z,43.26
2022-08-05T02:25:00.177Z,43.38
2022-08-05T02:27:30.111Z,43.37
2022-08-05T02:30:14.558Z,43.84
2022-08-05T02:32:43.650Z,43.59
2022-08-05T02:35:14.255Z,43.53
2022-08-05T02:37:43.022Z,43.96
2022-08-05T02:40:16.634Z,43.77
2022-08-05T02:42:43.947Z,43.94
2022-08-05T02:45:20.785Z,43.72
2022-08-05T02:48:07.515Z,43.66
2022-08-05T02:50:43.994Z,44.00
2022-08-05T02:53:18.849Z,44.17
2022-08-05T02:55:54.169Z,43.91
2022-08-05T02:58:23.035Z,43.82
2022-08-05T03:00:55.929Z,44.22
2022-08-05T03:03:23.528Z,44.25
2022-08-05T03:06:56.097Z,43.76
2022-08-05T03:08:42.618Z,44.17
2022-08-05T03:11:56.620Z,44.22
2022-08-05T03:14:13.591Z,44.21
2022-08-05T03:16:40.654Z,43.69
2022-08-05T03:19:12.918Z,43.72
2022-08-05T03:21:48.842Z,43.72
2022-08-05T03:24:18.689Z,44.53
2022-08-05T03:26:58.077Z,44.84
2022-08-05T03:29:24.751Z,44.81
2022-08-05T03:32:12.001Z,45.73
2022-08-05T03:34:41.258Z,46.18
2022-08-05T03:37:07.941Z,46.09
2022-08-05T03:39:38.297Z,46.54
2022-08-05T03:42:21.382Z,46.74
2022-08-05T03:44:54.117Z,47.24
2022-08-05T03:47:21.175Z,47.33
2022-08-05T03:49:51.715Z,47.48
2022-08-05T03:52:49.155Z,47.29
2022-08-05T03:56:05.165Z,47.45
2022-08-05T03:58:11.022Z,47.72
2022-08-05T04:00:39.263Z,47.35
2022-08-05T04:03:15.006Z,47.36
2022-08-05T04:05:59.062Z,47.47
2022-08-05T04:08:35.053Z,47.47
2022-08-05T04:11:04.754Z,47.75
2022-08-05T04:13:49.727Z,48.01
2022-08-05T04:16:25.462Z,48.60
2022-08-05T04:19:00.078Z,48.68
2022-08-05T04:22:09.812Z,49.09
2022-08-05T04:24:19.396Z,48.85
2022-08-05T04:26:50.030Z,48.99
2022-08-05T04:29:17.087Z,49.15
2022-08-05T04:31:43.854Z,49.47
2022-08-05T04:34:19.047Z,49.80
2022-08-05T04:36:57.855Z,49.37
2022-08-05T04:39:24.605Z,49.32
2022-08-05T04:41:54.585Z,49.62
2022-08-05T04:44:29.276Z,50.15
2022-08-05T04:47:09.012Z,50.30
2022-08-05T04:50:01.645Z,50.42
2022-08-05T04:52:29.104Z,50.95
2022-08-05T04:55:00.189Z,50.95
2022-08-05T04:57:40.801Z,51.10
2022-08-05T05:00:15.294Z,50.58
2022-08-05T05:02:43.601Z,50.71
2022-08-05T05:05:26.363Z,50.88
2022-08-05T05:08:00.919Z,50.74
2022-08-05T05:10:30.127Z,51.26
2022-08-05T05:12:57.722Z,50.86
2022-08-05T05:15:57.436Z,50.68
2022-08-05T05:18:15.284Z,51.29
2022-08-05T05:20:55.245Z,51.10
2022-08-05T05:23:21.870Z,51.29
2022-08-05T05:25:48.561Z,51.66
2022-08-05T05:28:15.236Z,51.84
2022-08-05T05:30:42.420Z,51.70
2022-08-05T05:33:16.970Z,51.89
2022-08-05T05:35:45.609Z,52.30
2022-08-05T05:38:13.308Z,51.96
2022-08-05T05:40:50.068Z,52.43
2022-08-05T05:43:22.406Z,52.16
2022-08-05T05:46:13.684Z,52.01
2022-08-05T05:48:43.958Z,52.39
2022-08-05T05:51:15.209Z,51.88
2022-08-05T05:53:54.467Z,52.34
2022-08-05T05:56:33.234Z,52.06
2022-08-05T05:59:07.624Z,52.11
2022-08-05T06:01:40.185Z,52.67
2022-08-05T06:04:12.686Z,52.20
2022-08-05T06:06:47.423Z,52.80
2022-08-05T06:09:17.532Z,52.58
2022-08-05T06:12:01.386Z,52.70
2022-08-05T06:14:34.696Z,52.97
2022-08-05T06:17:22.062Z,53.21
2022-08-05T06:19:56.787Z,52.88
2022-08-05T06:22:28.795Z,53.06
2022-08-05T06:24:55.895Z,52.80
2022-08-05T06:28:11.467Z,52.66
2022-08-05T06:30:16.808Z,52.76
2022-08-05T06:32:48.104Z,53.23
2022-08-05T06:36:03.017Z,53.31
2022-08-05T06:38:11.696Z,53.75
2022-08-05T06:40:42.254Z,53.34
2022-08-05T06:43:57.544Z,53.01
2022-08-05T06:46:04.053Z,53.23
2022-08-05T06:48:56.186Z,53.33
2022-08-05T06:51:29.481Z,53.17
2022-08-05T06:53:58.936Z,53.12
2022-08-05T06:56:27.031Z,53.45
2022-08-05T06:58:55.017Z,53.08
2022-08-05T07:01:22.649Z,53.51
2022-08-05T07:03:49.982Z,53.25
2022-08-05T07:06:17.441Z,53.33
2022-08-05T07:08:51.696Z,53.48
2022-08-05T07:11:22.227Z,53.20
2022-08-05T07:14:15.360Z,53.22
2022-08-05T07:18:01.835Z,53.36
2022-08-05T07:22:28.540Z,53.00
2022-08-05T07:25:23.376Z,53.13
2022-08-05T07:27:57.305Z,53.10
2022-08-05T07:30:34.311Z,52.43
2022-08-05T07:33:09.066Z,52.40
2022-08-05T07:36:03.694Z,52.26
2022-08-05T07:38:34.237Z,52.15
2022-08-05T07:41:35.168Z,51.93
2022-08-05T07:43:57.496Z,51.89
2022-08-05T07:46:29.174Z,51.49
2022-08-05T07:49:01.798Z,51.59
2022-08-05T07:51:48.711Z,50.83
2022-08-05T07:54:26.424Z,51.02
2022-08-05T07:57:13.886Z,50.79
2022-08-05T07:59:41.221Z,50.25
2022-08-05T08:02:15.968Z,50.07
2022-08-05T08:04:45.428Z,50.35
2022-08-05T08:07:13.525Z,50.24
2022-08-05T08:09:40.618Z,49.91
2022-08-05T08:12:35.429Z,50.11
2022-08-05T08:14:54.327Z,49.70
2022-08-05T08:17:21.602Z,50.08
2022-08-05T08:20:44.014Z,49.57
2022-08-05T08:22:35.786Z,49.46
2022-08-05T08:25:03.949Z,49.33
2022-08-05T08:27:44.988Z,48.98
2022-08-05T08:30:30.187Z,49.30
2022-08-05T08:33:04.515Z,49.19
2022-08-05T08:35:41.596Z,48.89
2022-08-05T08:38:35.094Z,48.64
2022-08-05T08:41:07.344Z,48.40
2022-08-05T08:45:16.503Z,47.97
2022-08-05T08:46:24.359Z,48.06
2022-08-05T08:49:07.900Z,47.68
2022-08-05T08:52:03.171Z,47.79
2022-08-05T08:54:27.261Z,47.23
2022-08-05T08:56:54.447Z,47.27
2022-08-05T08:59:27.708Z,47.08
2022-08-05T09:02:01.800Z,46.91
2022-08-05T09:04:30.134Z,46.24
2022-08-05T09:06:58.469Z,46.20
2022-08-05T09:09:26.082Z,46.31
2022-08-05T09:12:20.722Z,45.85
2022-08-05T09:14:58.318Z,45.70
2022-08-05T09:17:42.717Z,45.79
2022-08-05T09:20:13.264Z,45.33
2022-08-05T09:23:18.470Z,45.63
2022-08-05T09:26:02.659Z,45.28
2022-08-05T09:28:33.492Z,44.96
2022-08-05T09:31:43.286Z,44.93
2022-08-05T09:33:59.340Z,44.96
2022-08-05T09:36:59.387Z,45.09
2022-08-05T09:39:41.485Z,44.94
2022-08-05T09:42:24.131Z,44.63
2022-08-05T09:44:57.214Z,44.35
2022-08-05T09:47:48.061Z,44.96
2022-08-05T09:50:36.072Z,44.47
2022-08-05T09:53:05.765Z,44.75
2022-08-05T09:55:56.619Z,44.55
2022-08-05T09:58:23.268Z,44.09
2022-08-05T10:01:14.750Z,44.35
2022-08-05T10:04:00.101Z,44.42
2022-08-05T10:06:28.218Z,44.31
2022-08-05T10:08:55.791Z,44.21
2022-08-05T10:11:22.961Z,43.93
2022-08-05T10:13:54.538Z,44.12
2022-08-05T10:16:41.635Z,43.68
2022-08-05T10:19:10.218Z,43.72
2022-08-05T10:21:40.255Z,43.58
2022-08-05T10:24:13.517Z,43.28
2022-08-05T10:26:51.244Z,43.31
2022-08-05T10:29:24.179Z,43.09
2022-08-05T10:32:51.579Z,42.88
2022-08-05T10:35:01.098Z,42.67
2022-08-05T10:37:40.363Z,42.41
2022-08-05T10:40:38.999Z,43.06
2022-08-05T10:43:48.602Z,42.99
2022-08-05T10:46:18.407Z,42.62
2022-08-05T10:49:08.109Z,42.68
2022-08-05T10:51:48.610Z,42.67
2022-08-05T10:54:56.151Z,42.74
2022-08-05T10:57:31.001Z,42.41
2022-08-05T11:00:20.670Z,42.56
2022-08-05T11:03:23.448Z,42.50
2022-08-05T11:06:15.674Z,42.38
2022-08-05T11:09:10.957Z,42.61
2022-08-05T11:11:52.433Z,42.44
2022-08-05T11:14:42.906Z,42.54
2022-08-05T11:18:09.525Z,42.37
2022-08-05T11:20:32.507Z,42.25
2022-08-05T11:23:05.752Z,42.17
2022-08-05T11:26:04.584Z,42.21
2022-08-05T11:28:32.937Z,42.32
2022-08-05T11:31:06.540Z,41.89
2022-08-05T11:33:46.553Z,42.05
2022-08-05T11:36:34.617Z,42.07
2022-08-05T11:39:08.472Z,42.02
2022-08-05T11:42:01.322Z,41.60
2022-08-05T11:44:52.810Z,41.54
2022-08-05T11:47:17.360Z,41.49
2022-08-05T11:49:49.717Z,41.71
2022-08-05T11:52:31.001Z,41.43
2022-08-05T11:54:58.884Z,41.42
2022-08-05T11:57:30.633Z,41.59
2022-08-05T12:00:25.906Z,41.82
2022-08-05T12:02:56.554Z,41.69
2022-08-05T12:05:36.147Z,41.74
2022-08-05T12:08:10.832Z,41.65
2022-08-05T12:10:45.177Z,41.47
2022-08-05T12:13:28.042Z,42.01
2022-08-05T12:16:14.484Z,41.70
2022-08-05T12:18:42.596Z,41.69
2022-08-05T12:21:18.789Z,42.21
2022-08-05T12:24:07.788Z,41.88
2022-08-05T12:26:44.112Z,41.80
2022-08-05T12:29:39.034Z,42.21
2022-08-05T12:32:07.441Z,41.88
2022-08-05T12:34:37.707Z,42.44
2022-08-05T12:37:16.969Z,42.25
2022-08-05T12:39:45.002Z,41.99
2022-08-05T12:42:19.982Z,42.43
2022-08-05T12:44:47.606Z,42.44
2022-08-05T12:47:26.356Z,42.40
2022-08-05T12:50:04.430Z,42.09
2022-08-05T12:52:41.676Z,41.91
2022-08-05T12:55:25.605Z,42.05
2022-08-05T12:58:48.552Z,42.06
2022-08-05T13:02:03.859Z,41.66
2022-08-05T13:03:31.920Z,41.86
2022-08-05T13:06:01.060Z,41.60
2022-08-05T13:08:32.439Z,41.87
2022-08-05T13:11:04.325Z,42.17
2022-08-05T13:14:05.789Z,41.62
2022-08-05T13:16:19.546Z,41.78
2022-08-05T13:18:55.181Z,41.93
2022-08-05T13:21:28.247Z,42.39
2022-08-05T13:24:08.591Z,42.50
2022-08-05T13:26:35.979Z,42.06
2022-08-05T13:29:02.750Z,42.50
2022-08-05T13:31:33.700Z,42.77
2022-08-05T13:34:25.561Z,42.71
2022-08-05T13:36:53.967Z,42.76
2022-08-05T13:40:14.631Z,42.55
2022-08-05T13:42:14.658Z,42.95
2022-08-05T13:44:45.413Z,43.03
2022-08-05T13:47:35.119Z,43.16
2022-08-05T13:50:01.349Z,43.32
2022-08-05T13:52:35.244Z,43.01
2022-08-05T13:55:07.440Z,43.38
2022-08-05T13:57:48.512Z,42.92
2022-08-05T14:00:31.891Z,43.00
2022-08-05T14:03:01.118Z,41.33
2022-08-05T14:05:48.473Z,40.42
2022-08-05T14:08:21.284Z,40.15
2022-08-05T14:10:59.695Z,39.49
2022-08-05T14:14:00.486Z,39.08
2022-08-05T14:16:29.060Z,39.00
2022-08-05T14:18:56.756Z,38.88
2022-08-05T14:22:09.688Z,38.85
2022-08-05T14:24:12.297Z,38.92
2022-08-05T14:26:51.378Z,39.42
2022-08-05T14:29:23.251Z,39.25
2022-08-05T14:32:02.857Z,39.39
2022-08-05T14:34:39.595Z,39.33
2022-08-05T14:37:07.109Z,40.07
2022-08-05T14:39:50.051Z,39.77
2022-08-05T14:42:29.375Z,40.06
2022-08-05T14:44:56.689Z,39.66
2022-08-05T14:48:02.745Z,40.02
2022-08-05T14:50:17.181Z,39.94
2022-08-05T14:52:57.635Z,39.57
2022-08-05T14:55:38.481Z,39.32
2022-08-05T14:58:11.321Z,39.27
2022-08-05T15:00:57.975Z,39.04
2022-08-05T15:03:33.268Z,39.20
2022-08-05T15:06:07.426Z,39.27
2022-08-05T15:09:01.370Z,39.55
2022-08-05T15:11:51.525Z,39.96
2022-08-05T15:14:34.247Z,40.56
2022-08-05T15:17:03.995Z,41.08
2022-08-05T15:19:32.737Z,40.74
2022-08-05T15:22:01.343Z,40.76
2022-08-05T15:24:30.444Z,41.00
2022-08-05T15:26:57.838Z,40.94
2022-08-05T15:29:30.239Z,41.16
2022-08-05T15:32:02.379Z,41.55
2022-08-05T15:34:41.638Z,41.67
2022-08-05T15:41:01.991Z,42.18
2022-08-05T15:43:12.768Z,42.16
2022-08-05T15:45:45.791Z,42.02
2022-08-05T15:48:17.916Z,41.84
2022-08-05T15:50:48.924Z,41.89
2022-08-05T15:53:38.257Z,41.73
2022-08-05T15:56:25.871Z,41.03
2022-08-05T15:58:58.434Z,40.98
2022-08-05T16:01:29.494Z,40.46
2022-08-05T16:04:11.350Z,40.56
2022-08-05T16:06:46.340Z,40.82
2022-08-05T16:09:14.305Z,40.24
2022-08-05T16:11:43.363Z,39.91
2022-08-05T16:14:17.217Z,39.29
2022-08-05T16:16:45.251Z,39.17
2022-08-05T16:19:18.946Z,39.22
2022-08-05T16:22:03.024Z,38.60
2022-08-05T16:24:41.532Z,38.71
2022-08-05T16:27:17.772Z,39.00
2022-08-05T16:29:50.407Z,38.90
2022-08-05T16:32:28.250Z,39.27
2022-08-05T16:34:55.873Z,39.17
2022-08-05T16:38:01.997Z,38.81
2022-08-05T16:40:20.258Z,38.49
2022-08-05T16:42:53.266Z,38.51
2022-08-05T16:46:07.623Z,38.34
2022-08-05T16:48:06.821Z,38.56
2022-08-05T16:50:37.557Z,37.89
2022-08-05T16:53:12.709Z,38.17
2022-08-05T16:55:50.195Z,37.69
2022-08-05T16:58:19.926Z,37.13
2022-08-05T17:00:48.171Z,37.01
2022-08-05T17:03:20.603Z,36.72
2022-08-05T17:05:53.574Z,36.51
2022-08-05T17:08:36.162Z,36.82
2022-08-05T17:11:12.867Z,35.51
2022-08-05T17:13:44.054Z,35.44
2022-08-05T17:16:30.149Z,35.59
2022-08-05T17:18:57.508Z,35.25
2022-08-05T17:21:24.217Z,34.56
2022-08-05T17:24:05.924Z,35.05
2022-08-05T17:26:39.163Z,35.17
2022-08-05T17:29:09.897Z,35.07
2022-08-05T17:31:56.888Z,35.10
2022-08-05T17:34:29.564Z,35.77
2022-08-05T17:36:59.042Z,35.79
2022-08-05T17:39:34.202Z,36.02
2022-08-05T17:42:17.557Z,36.34
2022-08-05T17:44:50.954Z,36.62
2022-08-05T17:47:22.580Z,37.04
2022-08-05T17:50:03.577Z,37.35
2022-08-05T17:52:34.850Z,37.93
2022-08-05T17:55:21.423Z,38.28
2022-08-05T17:57:48.557Z,38.39
2022-08-05T18:00:17.351Z,38.42
2022-08-05T18:02:46.760Z,38.36
2022-08-05T18:05:17.006Z,38.81
2022-08-05T18:07:44.699Z,38.40
2022-08-05T18:10:20.369Z,38.56
2022-08-05T18:12:49.376Z,39.05
2022-08-05T18:15:16.237Z,39.24
2022-08-05T18:18:00.830Z,39.26
2022-08-05T18:20:32.136Z,39.34
2022-08-05T18:23:09.432Z,39.55
2022-08-05T18:25:44.977Z,39.18
2022-08-05T18:28:16.114Z,39.46
2022-08-05T18:30:51.149Z,39.40
2022-08-05T18:33:22.941Z,39.67
2022-08-05T18:36:04.911Z,39.40
2022-08-05T18:38:36.174Z,39.61
2022-08-05T18:41:53.654Z,39.49
2022-08-05T18:43:52.688Z,39.55
2022-08-05T18:46:20.124Z,39.59
2022-08-05T18:48:52.035Z,39.89
2022-08-05T18:52:02.734Z,39.95
2022-08-05T18:54:31.290Z,39.67
2022-08-05T18:57:00.874Z,39.94
2022-08-05T18:59:44.036Z,40.20
2022-08-05T19:02:27.104Z,40.51
2022-08-05T19:05:02.614Z,40.28
2022-08-05T19:07:46.725Z,40.94
2022-08-05T19:10:28.459Z,41.20
2022-08-05T19:12:56.669Z,41.34
2022-08-05T19:15:57.819Z,41.05
2022-08-05T19:18:20.760Z,41.51
2022-08-05T19:20:52.021Z,41.61
2022-08-05T19:24:04.235Z,41.81
2022-08-05T19:26:08.437Z,41.57
2022-08-05T19:28:41.526Z,41.67
2022-08-05T19:31:09.502Z,42.11
2022-08-05T19:33:55.687Z,42.42
2022-08-05T19:36:29.300Z,42.78
2022-08-05T19:39:03.810Z,43.38
2022-08-05T19:42:05.661Z,44.11
2022-08-05T19:44:19.127Z,44.22
2022-08-05T19:46:46.190Z,44.50
2022-08-05T19:49:17.127Z,44.86
2022-08-05T19:52:05.390Z,44.49
2022-08-05T19:54:34.053Z,44.83
2022-08-05T19:57:06.613Z,45.32
2022-08-05T19:59:56.320Z,44.93
2022-08-05T20:02:26.178Z,45.05
2022-08-05T20:04:55.369Z,45.51
2022-08-05T20:07:47.311Z,45.85
2022-08-05T20:10:14.310Z,46.47
2022-08-05T20:12:48.206Z,46.47
2022-08-05T20:15:23.220Z,46.20
2022-08-05T20:18:10.238Z,46.05
2022-08-05T20:20:51.822Z,46.28
2022-08-05T20:23:22.431Z,46.76
2022-08-05T20:25:49.245Z,46.33
2022-08-05T20:28:19.160Z,46.17
2022-08-05T20:30:46.550Z,46.43
2022-08-05T20:33:16.502Z,46.44
2022-08-05T20:35:45.501Z,46.17
2022-08-05T20:38:14.407Z,46.45
2022-08-05T20:40:50.508Z,46.15
2022-08-05T20:43:17.530Z,46.02
2022-08-05T20:46:04.231Z,45.76
2022-08-05T20:48:30.922Z,45.62
2022-08-05T20:50:57.612Z,46.01
2022-08-05T20:53:37.012Z,45.91
2022-08-05T20:56:09.638Z,45.83
2022-08-05T20:58:36.835Z,46.02
2022-08-05T21:01:05.204Z,45.95
2022-08-05T21:03:34.734Z,45.72
2022-08-05T21:06:01.932Z,45.99
2022-08-05T21:08:42.301Z,45.76
2022-08-05T21:11:12.588Z,45.89
2022-08-05T21:13:47.931Z,45.68
2022-08-05T21:16:23.115Z,45.60
2022-08-05T21:18:56.951Z,45.93
2022-08-05T21:21:26.993Z,45.47
2022-08-05T21:24:12.731Z,45.90
2022-08-05T21:26:41.485Z,45.66
2022-08-05T21:29:12.586Z,45.75
2022-08-05T21:31:43.619Z,45.47
2022-08-05T21:34:11.116Z,45.48
2022-08-05T21:36:38.478Z,45.52
2022-08-05T21:39:05.589Z,45.71
2022-08-05T21:41:35.706Z,45.82
2022-08-05T21:44:04.771Z,45.36
2022-08-05T21:46:34.362Z,45.43
2022-08-05T21:49:07.255Z,45.85
2022-08-05T21:52:22.259Z,45.70
2022-08-05T21:54:27.801Z,45.85
2022-08-05T21:57:29.270Z,46.29
2022-08-05T22:00:02.087Z,46.27
2022-08-05T22:02:39.384Z,45.84
2022-08-05T22:05:09.303Z,46.14
2022-08-05T22:07:39.772Z,46.62
2022-08-05T22:10:26.603Z,46.87
2022-08-05T22:12:57.285Z,47.12
2022-08-05T22:16:02.756Z,46.75
2022-08-05T22:18:11.589Z,47.20
2022-08-05T22:20:39.201Z,47.09
2022-08-05T22:24:03.171Z,46.92
2022-08-05T22:26:31.106Z,46.97
2022-08-05T22:28:58.090Z,46.97
2022-08-05T22:31:30.260Z,47.36
2022-08-05T22:34:01.634Z,47.07
2022-08-05T22:36:29.228Z,46.87
2022-08-05T22:38:56.351Z,46.78
2022-08-05T22:42:04.834Z,47.07
2022-08-05T22:44:11.990Z,46.69
2022-08-05T22:46:40.641Z,47.16
2022-08-05T22:49:12.161Z,46.70
2022-08-05T22:52:05.559Z,46.31
2022-08-05T22:54:38.896Z,46.37
2022-08-05T22:57:06.186Z,46.68
2022-08-05T22:59:46.567Z,46.26
2022-08-05T23:02:18.468Z,45.97
2022-08-05T23:04:57.913Z,46.44
2022-08-05T23:07:28.786Z,46.36
2022-08-05T23:10:02.096Z,46.31
2022-08-05T23:12:32.421Z,46.36
2022-08-05T23:15:08.827Z,45.91
2022-08-05T23:18:00.157Z,46.06
2022-08-05T23:20:24.378Z,45.96
2022-08-05T23:22:55.713Z,45.80
2022-08-05T23:25:52.345Z,46.01
2022-08-05T23:28:09.767Z,45.61
2022-08-05T23:30:40.437Z,46.00
2022-08-05T23:33:16.181Z,45.54
2022-08-05T23:35:50.345Z,45.51
2022-08-05T23:38:17.228Z,46.03
2022-08-05T23:40:50.247Z,45.75
2022-08-05T23:43:25.686Z,46.06
2022-08-05T23:46:21.321Z,46.09
2022-08-05T23:49:00.440Z,45.96
2022-08-05T23:51:54.295Z,45.98
2022-08-05T23:54:25.837Z,46.02
2022-08-05T23:56:54.622Z,46.02
2022-08-05T23:59:22.185Z,45.88
